createdAt,value
2023-05-01T00:02:34.436Z,6.65
2023-05-01T00:07:42.733Z,6.51
2023-05-01T00:12:48.204Z,6.32
2023-05-01T00:17:53.782Z,6.50
2023-05-01T00:23:02.659Z,6.65
2023-05-01T00:28:08.480Z,6.58
2023-05-01T00:33:13.633Z,6.55
2023-05-01T00:38:24.442Z,6.48
2023-05-01T00:43:29.898Z,6.06
2023-05-01T00:48:35.103Z,6.01
2023-05-01T00:53:46.260Z,6.16
2023-05-01T00:58:55.347Z,5.94
2023-05-01T01:04:01.650Z,5.99
2023-05-01T01:09:26.251Z,5.74
2023-05-01T01:14:36.931Z,5.55
2023-05-01T01:20:17.778Z,5.62
2023-05-01T01:26:01.385Z,5.68
2023-05-01T01:31:23.651Z,5.50
2023-05-01T01:36:40.352Z,5.46
2023-05-01T01:41:53.170Z,5.29
2023-05-01T01:47:02.259Z,5.22
2023-05-01T01:52:14.410Z,5.06
2023-05-01T01:57:21.792Z,4.89
2023-05-01T02:02:29.576Z,4.87
2023-05-01T02:07:38.806Z,4.89
2023-05-01T02:12:46.295Z,5.13
2023-05-01T02:17:54.332Z,4.90
2023-05-01T02:23:03.375Z,4.67
2023-05-01T02:28:16.329Z,5.05
2023-05-01T02:33:21.656Z,4.85
2023-05-01T02:38:29.822Z,5.03
2023-05-01T02:43:36.949Z,4.98
2023-05-01T02:48:45.280Z,5.10
2023-05-01T02:53:53.767Z,4.73
2023-05-01T02:59:00.907Z,4.52
2023-05-01T03:04:06.059Z,4.54
2023-05-01T03:09:14.453Z,4.97
2023-05-01T03:14:19.928Z,4.66
2023-05-01T03:19:25.661Z,4.55
2023-05-01T03:24:33.859Z,4.15
2023-05-01T03:29:39.870Z,3.68
2023-05-01T03:34:45.059Z,3.80
2023-05-01T03:39:56.608Z,4.01
2023-05-01T03:45:21.395Z,4.05
2023-05-01T03:50:26.822Z,4.66
2023-05-01T03:55:37.285Z,4.48
2023-05-01T04:00:43.238Z,4.25
2023-05-01T04:05:49.238Z,4.18
2023-05-01T04:10:59.465Z,4.78
2023-05-01T04:16:05.105Z,5.07
2023-05-01T04:21:11.098Z,4.43
2023-05-01T04:26:22.302Z,5.52
2023-05-01T04:31:28.109Z,6.70
2023-05-01T04:36:35.591Z,6.23
2023-05-01T04:41:44.057Z,7.36
2023-05-01T04:46:49.741Z,7.44
2023-05-01T04:51:57.171Z,7.38
2023-05-01T04:57:09.003Z,7.83
2023-05-01T05:02:14.224Z,8.19
2023-05-01T05:07:21.861Z,8.60
2023-05-01T05:12:52.679Z,9.50
2023-05-01T05:17:58.112Z,9.09
2023-05-01T05:23:04.882Z,9.01
2023-05-01T05:28:12.785Z,9.56
2023-05-01T05:33:18.550Z,8.48
2023-05-01T05:38:25.857Z,8.57
2023-05-01T05:43:37.545Z,9.27
2023-05-01T05:48:46.240Z,10.82
2023-05-01T05:53:52.578Z,11.69
2023-05-01T05:59:03.760Z,12.54
2023-05-01T06:04:09.760Z,13.98
2023-05-01T06:09:19.198Z,13.31
2023-05-01T06:14:26.974Z,13.19
2023-05-01T06:19:43.187Z,12.63
2023-05-01T06:24:49.774Z,12.45
2023-05-01T06:30:01.678Z,14.02
2023-05-01T06:35:09.551Z,13.80
2023-05-01T06:40:16.982Z,14.38
2023-05-01T06:45:27.823Z,13.88
2023-05-01T06:50:33.609Z,15.30
2023-05-01T06:55:40.127Z,13.06
2023-05-01T07:00:47.825Z,14.35
2023-05-01T07:05:54.138Z,15.16
2023-05-01T07:11:00.584Z,15.38
2023-05-01T07:16:09.496Z,14.93
2023-05-01T07:21:14.758Z,14.76
2023-05-01T07:26:20.238Z,15.33
2023-05-01T07:31:28.255Z,14.43
2023-05-01T07:36:36.829Z,15.48
2023-05-01T07:41:41.832Z,15.60
2023-05-01T07:46:49.743Z,15.63
2023-05-01T07:51:58.368Z,16.34
2023-05-01T07:57:05.778Z,14.59
2023-05-01T08:02:18.978Z,15.18
2023-05-01T08:07:24.964Z,15.01
2023-05-01T08:12:34.214Z,15.21
2023-05-01T08:17:42.286Z,16.33
2023-05-01T08:22:50.087Z,15.91
2023-05-01T08:27:55.412Z,15.66
2023-05-01T08:33:03.714Z,16.00
2023-05-01T08:38:08.874Z,15.97
2023-05-01T08:43:14.341Z,16.18
2023-05-01T08:48:23.908Z,16.63
2023-05-01T08:53:32.040Z,16.58
2023-05-01T08:58:38.863Z,17.12
2023-05-01T09:03:47.432Z,17.24
2023-05-01T09:08:52.636Z,16.68
2023-05-01T09:14:00.578Z,17.22
2023-05-01T09:19:08.493Z,17.29
2023-05-01T09:24:13.858Z,18.08
2023-05-01T09:29:40.848Z,17.67
2023-05-01T09:34:50.342Z,17.03
2023-05-01T09:40:06.120Z,17.38
2023-05-01T09:45:17.185Z,18.03
2023-05-01T09:50:38.785Z,19.09
2023-05-01T09:55:43.869Z,18.26
2023-05-01T10:00:52.972Z,18.37
2023-05-01T10:06:02.137Z,17.35
2023-05-01T10:11:08.475Z,17.55
2023-05-01T10:16:32.007Z,17.36
2023-05-01T10:21:39.893Z,17.37
2023-05-01T10:26:46.252Z,17.98
2023-05-01T10:31:52.260Z,17.92
2023-05-01T10:37:06.395Z,17.72
2023-05-01T10:42:14.582Z,16.79
2023-05-01T10:47:50.594Z,17.74
2023-05-01T10:53:22.619Z,17.01
2023-05-01T10:59:04.943Z,17.97
2023-05-01T11:04:30.770Z,17.31
2023-05-01T11:09:44.480Z,17.54
2023-05-01T11:15:05.984Z,18.02
2023-05-01T11:20:12.758Z,18.07
2023-05-01T11:25:25.063Z,17.53
2023-05-01T11:30:39.836Z,16.96
2023-05-01T11:35:47.680Z,18.04
2023-05-01T11:41:04.051Z,18.24
2023-05-01T11:46:09.611Z,17.97
2023-05-01T11:51:16.253Z,17.57
2023-05-01T11:56:27.552Z,18.61
2023-05-01T12:01:41.154Z,18.33
2023-05-01T12:06:49.157Z,18.00
2023-05-01T12:11:58.162Z,19.13
2023-05-01T12:17:04.488Z,19.07
2023-05-01T12:22:09.882Z,18.99
2023-05-01T12:27:21.262Z,19.14
2023-05-01T12:32:35.716Z,18.56
2023-05-01T12:37:41.724Z,18.39
2023-05-01T12:42:59.124Z,19.27
2023-05-01T12:48:04.308Z,19.62
2023-05-01T12:53:09.966Z,19.43
2023-05-01T12:58:18.506Z,19.32
2023-05-01T13:03:28.452Z,20.08
2023-05-01T13:08:35.159Z,19.89
2023-05-01T13:13:43.641Z,19.93
2023-05-01T13:18:50.825Z,18.94
2023-05-01T13:23:59.134Z,19.29
2023-05-01T13:29:08.346Z,19.43
2023-05-01T13:34:13.639Z,19.03
2023-05-01T13:39:23.083Z,20.07
2023-05-01T13:44:33.063Z,20.10
2023-05-01T13:49:40.653Z,20.07
2023-05-01T13:54:47.257Z,18.95
2023-05-01T13:59:55.469Z,18.96
2023-05-01T14:05:01.146Z,19.00
2023-05-01T14:10:07.416Z,19.72
2023-05-01T14:15:17.357Z,19.69
2023-05-01T14:20:22.942Z,19.22
2023-05-01T14:25:30.163Z,19.59
2023-05-01T14:30:40.170Z,19.78
2023-05-01T14:35:52.878Z,20.09
2023-05-01T14:41:01.219Z,20.14
2023-05-01T14:46:09.632Z,19.80
2023-05-01T14:51:15.699Z,18.91
2023-05-01T14:56:21.153Z,19.76
2023-05-01T15:01:31.633Z,19.79
2023-05-01T15:06:36.830Z,19.59
2023-05-01T15:11:42.103Z,19.56
2023-05-01T15:16:49.862Z,19.59
2023-05-01T15:21:55.090Z,19.54
2023-05-01T15:27:00.199Z,19.22
2023-05-01T15:32:12.529Z,19.31
2023-05-01T15:37:20.776Z,19.48
2023-05-01T15:42:25.845Z,19.63
2023-05-01T15:47:34.743Z,19.30
2023-05-01T15:52:40.127Z,19.48
2023-05-01T15:57:49.976Z,19.32
2023-05-01T16:02:57.751Z,19.48
2023-05-01T16:08:05.471Z,19.56
2023-05-01T16:13:10.595Z,19.63
2023-05-01T16:18:23.302Z,19.12
2023-05-01T16:23:29.162Z,18.87
2023-05-01T16:28:36.791Z,18.95
2023-05-01T16:33:44.553Z,18.53
2023-05-01T16:38:50.220Z,18.61
2023-05-01T16:43:55.487Z,18.73
2023-05-01T16:49:03.457Z,18.56
2023-05-01T16:54:08.469Z,18.78
2023-05-01T16:59:15.876Z,18.91
2023-05-01T17:04:23.682Z,18.87
2023-05-01T17:09:30.397Z,19.01
2023-05-01T17:14:37.804Z,19.09
2023-05-01T17:19:48.541Z,18.94
2023-05-01T17:24:53.593Z,18.67
2023-05-01T17:30:00.359Z,18.76
2023-05-01T17:35:15.856Z,18.80
2023-05-01T17:40:21.516Z,18.90
2023-05-01T17:45:26.776Z,18.69
2023-05-01T17:50:35.796Z,18.58
2023-05-01T17:55:43.057Z,18.60
2023-05-01T18:00:48.607Z,18.40
2023-05-01T18:05:57.081Z,18.26
2023-05-01T18:11:02.315Z,18.36
2023-05-01T18:16:09.110Z,18.20
2023-05-01T18:21:17.129Z,18.16
2023-05-01T18:26:22.747Z,17.88
2023-05-01T18:31:28.016Z,17.60
2023-05-01T18:36:35.845Z,17.38
2023-05-01T18:41:45.742Z,17.53
2023-05-01T18:46:51.146Z,17.72
2023-05-01T18:51:59.188Z,17.69
2023-05-01T18:57:04.346Z,17.09
2023-05-01T19:02:09.819Z,16.81
2023-05-01T19:07:18.330Z,16.98
2023-05-01T19:12:23.932Z,16.99
2023-05-01T19:17:29.251Z,16.99
2023-05-01T19:22:39.279Z,17.00
2023-05-01T19:27:45.525Z,16.75
2023-05-01T19:32:52.741Z,16.74
2023-05-01T19:38:02.078Z,16.88
2023-05-01T19:43:07.547Z,16.76
2023-05-01T19:48:13.012Z,16.98
2023-05-01T19:53:21.258Z,16.79
2023-05-01T19:58:27.008Z,16.44
2023-05-01T20:03:35.783Z,16.42
2023-05-01T20:08:44.611Z,16.67
2023-05-01T20:13:49.748Z,16.47
2023-05-01T20:18:55.005Z,16.57
2023-05-01T20:24:03.179Z,16.61
2023-05-01T20:29:09.587Z,16.30
2023-05-01T20:34:14.727Z,16.14
2023-05-01T20:39:23.046Z,15.82
2023-05-01T20:44:30.384Z,15.65
2023-05-01T20:49:36.005Z,15.67
2023-05-01T20:54:45.034Z,15.94
2023-05-01T20:59:51.162Z,15.84
2023-05-01T21:04:57.773Z,15.57
2023-05-01T21:10:10.796Z,15.59
2023-05-01T21:15:15.952Z,15.29
2023-05-01T21:20:32.277Z,15.37
2023-05-01T21:25:42.091Z,15.11
2023-05-01T21:30:47.452Z,15.18
2023-05-01T21:35:52.690Z,15.04
2023-05-01T21:41:00.817Z,15.06
2023-05-01T21:46:06.221Z,14.96
2023-05-01T21:51:11.675Z,14.83
2023-05-01T21:56:21.289Z,14.74
2023-05-01T22:01:26.920Z,14.76
2023-05-01T22:06:33.396Z,14.77
2023-05-01T22:11:42.408Z,14.72
2023-05-01T22:16:49.532Z,15.00
2023-05-01T22:21:54.808Z,14.91
2023-05-01T22:27:02.821Z,14.95
2023-05-01T22:32:08.679Z,14.82
2023-05-01T22:37:14.333Z,14.81
2023-05-01T22:42:22.665Z,14.68
2023-05-01T22:47:30.318Z,14.73
2023-05-01T22:52:35.666Z,14.33
2023-05-01T22:57:44.509Z,14.36
2023-05-01T23:02:49.818Z,14.45
2023-05-01T23:07:56.524Z,14.71
2023-05-01T23:13:07.227Z,14.88
2023-05-01T23:18:15.928Z,15.05
2023-05-01T23:23:23.318Z,14.89
2023-05-01T23:28:32.324Z,14.88
2023-05-01T23:33:39.635Z,14.45
2023-05-01T23:38:44.989Z,14.56
2023-05-01T23:43:53.258Z,14.51
2023-05-01T23:48:58.996Z,14.48
2023-05-01T23:54:07.063Z,14.42
2023-05-01T23:59:15.026Z,14.32
